Time;durP1;ratioP1;P1;durP2;ratioP2;P2;SDS_P1;SDS_P2;PMS_P1;PMS_P2;Temp;Humidity;BMP_temperature;BMP_pressure;BME280_temperature;BME280_humidity;BME280_pressure;Samples;Min_cycle;Max_cycle;Signal;HPM_P1;HPM_P2
2023/01/31 00:01:19;;;;;;;9.18;2.10;;;;;;;18.53;41.69;102406.88;4991091;28;20122;-71
2023/01/31 00:03:47;;;;;;;9.10;2.50;;;;;;;18.48;41.73;102393.94;4991666;28;20585;-70
2023/01/31 00:06:18;;;;;;;7.57;2.20;;;;;;;18.46;41.76;102399.31;4991751;28;20467;-69
2023/01/31 00:08:46;;;;;;;8.02;3.53;;;;;;;18.46;41.39;102404.59;4998996;28;20402;-72
2023/01/31 00:11:12;;;;;;;9.98;2.13;;;;;;;18.43;41.69;102402.13;4992804;28;20477;-70
2023/01/31 00:13:38;;;;;;;10.15;2.47;;;;;;;18.42;41.34;102411.03;4991583;28;20497;-71
2023/01/31 00:16:03;;;;;;;8.95;2.20;;;;;;;18.38;41.75;102403.38;4991863;28;20109;-70
2023/01/31 00:18:29;;;;;;;10.98;2.10;;;;;;;18.39;41.59;102411.19;4991409;28;20046;-70
2023/01/31 00:20:54;;;;;;;10.30;2.53;;;;;;;18.37;41.53;102415.69;4994930;28;20072;-70
2023/01/31 00:23:19;;;;;;;9.70;2.28;;;;;;;18.38;41.65;102417.41;5002433;28;20030;-71
2023/01/31 00:25:45;;;;;;;10.65;2.75;;;;;;;18.34;41.69;102413.25;4995123;28;20077;-70
2023/01/31 00:28:10;;;;;;;10.73;2.50;;;;;;;18.34;41.87;102418.53;4996261;28;20138;-69
2023/01/31 00:30:35;;;;;;;9.13;2.38;;;;;;;18.32;41.40;102417.75;4992806;28;20081;-70
2023/01/31 00:33:01;;;;;;;10.38;2.63;;;;;;;18.29;41.72;102415.28;5001728;28;20057;-70
2023/01/31 00:35:27;;;;;;;9.57;2.10;;;;;;;18.28;41.69;102416.25;4994949;28;20108;-70
2023/01/31 00:37:53;;;;;;;8.63;2.35;;;;;;;18.29;41.19;102416.16;4994875;28;20467;-70
2023/01/31 00:40:18;;;;;;;7.18;1.90;;;;;;;18.23;40.23;102405.06;5001462;28;20038;-69
2023/01/31 00:42:43;;;;;;;9.98;2.70;;;;;;;18.24;40.05;102399.72;4995542;28;20027;-70
2023/01/31 00:45:09;;;;;;;7.32;2.00;;;;;;;18.26;39.74;102402.25;4995525;28;20096;-69
2023/01/31 00:47:35;;;;;;;7.10;1.92;;;;;;;18.22;39.73;102400.75;4994465;28;20042;-70
2023/01/31 00:50:00;;;;;;;7.50;1.92;;;;;;;18.24;40.03;102404.16;4994507;28;20445;-70
2023/01/31 00:52:26;;;;;;;7.28;2.30;;;;;;;18.19;39.73;102393.84;4994635;28;20053;-70
2023/01/31 00:54:51;;;;;;;8.88;1.95;;;;;;;18.23;39.76;102397.16;4994620;28;20077;-71
2023/01/31 00:57:16;;;;;;;7.90;2.10;;;;;;;18.23;39.73;102405.94;4994298;28;20030;-71
2023/01/31 00:59:41;;;;;;;8.15;2.22;;;;;;;18.23;39.75;102403.31;4994510;28;20118;-70
2023/01/31 01:02:07;;;;;;;8.07;2.70;;;;;;;18.17;39.27;102386.97;4995054;28;20501;-70
2023/01/31 01:04:32;;;;;;;6.72;2.55;;;;;;;18.21;39.33;102397.25;4994271;28;20115;-69
2023/01/31 01:06:57;;;;;;;6.65;1.80;;;;;;;18.19;39.23;102395.66;5001674;28;20494;-71
2023/01/31 01:09:24;;;;;;;9.38;2.63;;;;;;;18.20;38.99;102392.06;5001011;28;20075;-71
2023/01/31 01:11:50;;;;;;;8.27;2.03;;;;;;;18.19;38.99;102382.47;4994111;28;20110;-70
2023/01/31 01:14:15;;;;;;;7.93;2.13;;;;;;;18.17;38.89;102387.81;4994138;28;20455;-70
2023/01/31 01:16:41;;;;;;;5.22;1.88;;;;;;;18.17;38.75;102379.91;4994266;28;20030;-70
2023/01/31 01:19:11;;;;;;;7.68;2.20;;;;;;;18.16;38.75;102375.56;4995040;28;20034;-71
2023/01/31 01:21:39;;;;;;;9.02;2.40;;;;;;;18.10;38.69;102360.94;4994016;28;20062;-70
2023/01/31 01:24:10;;;;;;;10.15;2.60;;;;;;;18.12;38.70;102364.34;5000320;28;20061;-70
2023/01/31 01:26:35;;;;;;;7.82;2.33;;;;;;;18.15;38.46;102362.44;4994602;28;20033;-70
2023/01/31 01:29:02;;;;;;;8.77;2.40;;;;;;;18.10;38.43;102360.94;5000411;28;20121;-71
2023/01/31 01:31:30;;;;;;;8.07;2.50;;;;;;;18.12;38.36;102363.50;5000886;28;20388;-70
2023/01/31 01:33:58;;;;;;;7.47;2.40;;;;;;;18.09;38.42;102359.22;4994415;28;20034;-71
2023/01/31 01:36:24;;;;;;;8.18;2.72;;;;;;;18.10;38.50;102363.59;4993285;28;20409;-71
2023/01/31 01:38:50;;;;;;;8.27;2.40;;;;;;;18.10;38.38;102357.44;4994284;28;20030;-71
2023/01/31 01:41:16;;;;;;;9.13;2.60;;;;;;;18.10;38.27;102354.78;4994340;28;20029;-71
2023/01/31 01:43:47;;;;;;;7.78;2.40;;;;;;;18.07;38.45;102355.84;4994171;28;20489;-71
2023/01/31 01:46:35;;;;;;;7.70;2.20;;;;;;;18.03;38.10;102351.66;4993598;28;20126;-71
2023/01/31 01:49:12;;;;;;;7.95;2.42;;;;;;;18.03;38.21;102348.19;4993817;28;20474;-71
2023/01/31 01:51:38;;;;;;;9.07;2.47;;;;;;;18.07;38.14;102350.56;4993568;28;20027;-72
2023/01/31 01:54:08;;;;;;;7.70;2.83;;;;;;;18.05;37.99;102343.66;4993674;28;20219;-70
2023/01/31 01:56:39;;;;;;;7.40;2.25;;;;;;;18.03;37.84;102342.91;4993671;28;20046;-71
2023/01/31 01:59:15;;;;;;;8.40;2.75;;;;;;;17.99;37.87;102339.59;4993631;28;20041;-71
2023/01/31 02:01:42;;;;;;;7.43;2.20;;;;;;;17.98;37.82;102332.63;4993072;28;20069;-71
2023/01/31 02:04:14;;;;;;;7.85;2.42;;;;;;;17.98;37.53;102339.69;4993573;28;20037;-70
2023/01/31 02:06:40;;;;;;;7.45;2.65;;;;;;;18.00;37.71;102346.56;4993333;28;20140;-71
2023/01/31 02:09:12;;;;;;;7.70;2.83;;;;;;;17.96;37.66;102347.69;4993116;28;20184;-70
2023/01/31 02:11:37;;;;;;;8.95;3.10;;;;;;;17.98;37.77;102353.72;4993255;28;20030;-70
2023/01/31 02:14:08;;;;;;;8.02;2.42;;;;;;;17.98;37.69;102360.78;4992476;28;20049;-70
2023/01/31 02:16:34;;;;;;;8.85;2.97;;;;;;;17.97;37.42;102356.44;4992966;28;20111;-70
2023/01/31 02:19:00;;;;;;;6.40;2.50;;;;;;;17.96;37.48;102360.88;4992583;28;20038;-70
2023/01/31 02:22:13;;;;;;;8.85;2.35;;;;;;;17.96;37.38;102358.25;4993274;28;20415;-69
2023/01/31 02:25:06;;;;;;;6.22;2.33;;;;;;;17.94;37.53;102357.44;4990083;28;20120;-70
2023/01/31 02:27:47;;;;;;;7.03;2.92;;;;;;;17.91;37.43;102365.53;4992885;28;20030;-69
2023/01/31 02:30:34;;;;;;;8.48;2.83;;;;;;;17.93;37.48;102368.97;4993164;28;20053;-69
2023/01/31 02:33:12;;;;;;;7.32;2.50;;;;;;;17.88;37.50;102363.94;4993347;28;20033;-71
2023/01/31 02:35:53;;;;;;;8.15;2.60;;;;;;;17.88;37.38;102365.72;4992021;28;20038;-71
2023/01/31 02:38:38;;;;;;;7.10;2.60;;;;;;;17.90;37.37;102361.22;4993006;28;20030;-70
2023/01/31 02:41:25;;;;;;;5.82;2.55;;;;;;;17.89;37.13;102357.72;4993124;28;20038;-71
2023/01/31 02:47:10;;;;;;;9.07;3.00;;;;;;;17.86;37.06;102351.72;4992958;28;20049;-71
2023/01/31 02:49:47;;;;;;;8.45;3.17;;;;;;;17.84;37.38;102353.63;4992982;28;20030;-71
2023/01/31 02:52:19;;;;;;;8.35;2.83;;;;;;;17.85;37.06;102356.16;4992696;28;20042;-70
2023/01/31 02:57:54;;;;;;;7.47;2.58;;;;;;;17.83;37.06;102362.47;4992779;28;20146;-70
2023/01/31 03:00:21;;;;;;;8.05;2.90;;;;;;;17.83;37.12;102357.19;4992438;28;20041;-71
2023/01/31 03:02:46;;;;;;;7.97;3.20;;;;;;;17.82;37.05;102355.50;4992298;28;20363;-70
2023/01/31 03:05:17;;;;;;;9.52;3.05;;;;;;;17.81;37.15;102364.34;4992440;28;20036;-70
2023/01/31 03:07:47;;;;;;;7.97;3.10;;;;;;;17.77;37.33;102363.66;4992500;28;20121;-69
2023/01/31 03:10:43;;;;;;;8.23;3.25;;;;;;;17.80;37.26;102357.34;4991866;28;20039;-70
2023/01/31 03:14:05;;;;;;;8.05;3.08;;;;;;;17.79;37.15;102345.97;4993031;28;20040;-70
2023/01/31 03:19:30;;;;;;;8.02;3.42;;;;;;;17.76;37.17;102349.59;4951301;28;20033;-71
2023/01/31 03:22:03;;;;;;;6.77;2.93;;;;;;;17.77;37.05;102337.28;4976332;28;20585;-70
2023/01/31 03:24:29;;;;;;;8.70;3.15;;;;;;;17.74;37.05;102338.31;4991894;28;20030;-71
2023/01/31 03:26:57;;;;;;;9.57;3.80;;;;;;;17.76;37.08;102340.84;4992153;28;20048;-71
2023/01/31 03:29:26;;;;;;;7.10;3.00;;;;;;;17.74;36.97;102338.31;4992254;28;20104;-70
2023/01/31 03:31:57;;;;;;;8.63;3.20;;;;;;;17.74;36.93;102337.47;4992404;28;20034;-71
2023/01/31 03:34:24;;;;;;;8.25;3.45;;;;;;;17.69;37.20;102327.16;4990940;28;20026;-70
2023/01/31 03:36:56;;;;;;;8.55;3.30;;;;;;;17.71;36.89;102338.47;4992142;28;20145;-71
2023/01/31 03:39:41;;;;;;;9.27;2.97;;;;;;;17.72;37.14;102337.56;4991794;28;20069;-71
2023/01/31 03:42:34;;;;;;;7.28;2.97;;;;;;;17.72;36.71;102332.28;4991881;28;20543;-71
2023/01/31 03:45:11;;;;;;;8.73;3.17;;;;;;;17.71;37.00;102324.44;4992104;28;20461;-72
2023/01/31 03:47:40;;;;;;;7.95;3.20;;;;;;;17.69;36.83;102321.03;4991583;28;20475;-70
2023/01/31 03:50:37;;;;;;;9.20;3.30;;;;;;;17.71;36.88;102327.94;4991822;28;20034;-70
2023/01/31 03:53:25;;;;;;;9.55;3.60;;;;;;;17.68;37.16;102322.81;4989014;28;20502;-70
2023/01/31 03:56:03;;;;;;;8.43;3.80;;;;;;;17.65;36.92;102312.44;4991451;28;20120;-71
2023/01/31 03:58:34;;;;;;;8.60;3.63;;;;;;;17.65;36.93;102314.25;4991800;28;20066;-71
2023/01/31 04:01:03;;;;;;;9.57;3.15;;;;;;;17.67;36.72;102317.63;4991559;28;20068;-71
2023/01/31 04:03:54;;;;;;;7.88;3.00;;;;;;;17.68;37.12;102314.06;4991628;28;20033;-71
2023/01/31 04:06:20;;;;;;;9.25;2.90;;;;;;;17.65;36.83;102306.34;4998492;28;20120;-71
2023/01/31 04:08:45;;;;;;;7.78;3.40;;;;;;;17.64;36.67;102310.78;4991478;28;20124;-70
2023/01/31 04:11:13;;;;;;;9.00;3.67;;;;;;;17.66;37.12;102313.31;4991616;28;20039;-71
2023/01/31 04:13:39;;;;;;;9.73;3.80;;;;;;;17.65;36.73;102320.34;4991226;28;20125;-72
2023/01/31 04:16:05;;;;;;;8.60;3.70;;;;;;;17.61;36.89;102307.44;4991425;28;20109;-70
2023/01/31 04:18:30;;;;;;;9.95;3.58;;;;;;;17.62;36.44;102303.88;4991761;28;20132;-71
2023/01/31 04:20:56;;;;;;;9.15;3.60;;;;;;;17.65;36.92;102311.59;4990778;28;20085;-71
2023/01/31 04:23:21;;;;;;;8.45;3.58;;;;;;;17.58;36.84;102300.56;4990677;28;20039;-72
2023/01/31 04:25:46;;;;;;;7.80;3.60;;;;;;;17.50;37.01;102293.06;4991838;28;20046;-70
2023/01/31 04:28:12;;;;;;;7.57;3.35;;;;;;;17.59;36.79;102303.13;4991034;28;20088;-71
2023/01/31 04:30:37;;;;;;;10.25;3.47;;;;;;;17.61;37.01;102299.53;4991456;28;20061;-71
2023/01/31 04:33:02;;;;;;;7.85;3.40;;;;;;;17.61;36.97;102297.75;4991474;28;20455;-70
2023/01/31 04:35:27;;;;;;;9.02;4.10;;;;;;;17.62;36.93;102296.78;4991528;28;20068;-71
2023/01/31 04:37:53;;;;;;;8.60;3.70;;;;;;;17.62;36.81;102302.06;4991109;28;21019;-71
2023/01/31 04:40:18;;;;;;;9.20;3.83;;;;;;;17.57;36.81;102291.78;4991187;28;20035;-70
2023/01/31 04:42:44;;;;;;;8.15;4.18;;;;;;;17.60;36.75;102293.41;4990930;28;20039;-70
2023/01/31 04:45:09;;;;;;;7.63;3.33;;;;;;;17.58;36.77;102297.94;4991766;28;20034;-70
2023/01/31 04:47:35;;;;;;;8.57;3.60;;;;;;;17.56;36.90;102291.88;4991568;28;20041;-71
2023/01/31 04:50:00;;;;;;;8.13;3.90;;;;;;;17.55;36.69;102295.47;4997317;28;20034;-72
2023/01/31 04:52:25;;;;;;;9.95;3.53;;;;;;;17.56;36.92;102298.00;4989377;28;20157;-71
2023/01/31 04:54:51;;;;;;;9.05;3.83;;;;;;;17.57;36.41;102306.75;4990850;28;20038;-71
2023/01/31 04:57:16;;;;;;;8.25;3.28;;;;;;;17.57;36.64;102290.94;4991103;28;20055;-70
2023/01/31 04:59:41;;;;;;;7.60;3.30;;;;;;;17.56;36.62;102287.47;4990539;28;20466;-70
2023/01/31 05:02:06;;;;;;;8.25;2.97;;;;;;;17.52;36.74;102270.09;4990744;28;20034;-71
2023/01/31 05:04:32;;;;;;;8.65;3.50;;;;;;;17.53;36.77;102270.94;4989557;28;20053;-71
2023/01/31 05:06:57;;;;;;;7.80;3.40;;;;;;;17.55;36.58;102269.09;4991918;28;20038;-72
2023/01/31 05:09:23;;;;;;;8.48;3.55;;;;;;;17.54;36.44;102265.59;4994734;28;20149;-71
2023/01/31 05:11:49;;;;;;;8.93;3.47;;;;;;;17.52;36.66;102256.94;4994848;28;20037;-71
2023/01/31 05:14:15;;;;;;;8.98;3.53;;;;;;;17.51;36.47;102260.50;4993785;28;20031;-71
2023/01/31 05:16:42;;;;;;;10.30;3.55;;;;;;;17.51;36.64;102257.84;5001393;28;20540;-71
2023/01/31 05:19:08;;;;;;;8.88;3.35;;;;;;;17.53;36.71;102255.13;4995939;28;20034;-71
2023/01/31 05:21:53;;;;;;;9.82;3.70;;;;;;;17.51;36.62;102254.38;4994335;28;20402;-70
2023/01/31 05:24:19;;;;;;;9.10;4.07;;;;;;;17.51;36.71;102249.09;4994071;28;20156;-72
2023/01/31 05:26:44;;;;;;;11.20;3.67;;;;;;;17.52;36.49;102253.47;4992622;28;20129;-71
2023/01/31 05:29:09;;;;;;;8.45;3.42;;;;;;;17.51;36.38;102243.84;4994842;28;20076;-71
2023/01/31 05:31:34;;;;;;;8.15;3.28;;;;;;;17.54;36.52;102247.13;5000376;28;20034;-71
2023/01/31 05:34:00;;;;;;;9.68;3.58;;;;;;;17.51;36.40;102244.69;4993878;28;20363;-71
2023/01/31 05:36:25;;;;;;;10.55;3.60;;;;;;;17.55;36.67;102254.13;4993657;28;20068;-70
2023/01/31 05:38:50;;;;;;;7.57;3.30;;;;;;;17.56;36.79;102255.84;4994431;28;20463;-71
2023/01/31 05:41:15;;;;;;;8.65;2.90;;;;;;;17.56;37.25;102242.66;4993628;28;20161;-71
2023/01/31 05:43:41;;;;;;;7.72;3.33;;;;;;;17.59;37.38;102236.34;4994179;28;20467;-71
2023/01/31 05:46:06;;;;;;;8.60;3.17;;;;;;;17.58;37.43;102226.75;4994144;28;20034;-70
2023/01/31 05:48:31;;;;;;;6.18;2.83;;;;;;;17.64;37.08;102231.69;4994253;28;20275;-70
2023/01/31 05:50:57;;;;;;;7.53;3.00;;;;;;;17.68;37.03;102227.91;4993771;28;20876;-70
2023/01/31 05:53:22;;;;;;;7.55;3.30;;;;;;;17.79;37.00;102244.91;4993737;28;20122;-71
2023/01/31 05:55:48;;;;;;;8.38;3.10;;;;;;;17.83;36.79;102233.22;4993354;28;20437;-70
2023/01/31 05:58:14;;;;;;;8.25;2.92;;;;;;;17.90;37.14;102224.91;4993637;28;20125;-71
2023/01/31 06:00:39;;;;;;;7.10;2.72;;;;;;;17.98;37.31;102229.75;4993453;28;20542;-72
2023/01/31 06:03:04;;;;;;;6.10;2.55;;;;;;;18.02;37.29;102230.41;4993300;28;20034;-70
2023/01/31 06:05:29;;;;;;;7.32;2.80;;;;;;;18.06;37.41;102230.13;4993043;28;20035;-70
2023/01/31 06:07:55;;;;;;;7.45;2.80;;;;;;;18.05;37.61;102235.50;4993666;28;20034;-71
2023/01/31 06:10:21;;;;;;;8.32;2.80;;;;;;;18.13;37.65;102246.44;4993370;28;21172;-70
2023/01/31 06:12:47;;;;;;;7.43;2.60;;;;;;;18.15;37.79;102241.94;4993672;28;20033;-70
2023/01/31 06:15:12;;;;;;;8.50;3.50;;;;;;;18.13;37.71;102236.75;4993401;28;20064;-68
2023/01/31 06:17:37;;;;;;;9.32;2.78;;;;;;;18.16;37.85;102227.78;4992506;28;20058;-71
2023/01/31 06:20:04;;;;;;;8.77;2.95;;;;;;;18.19;38.18;102239.97;4992838;28;20065;-69
2023/01/31 06:22:29;;;;;;;7.25;2.78;;;;;;;18.21;38.16;102227.53;4992900;28;20042;-71
2023/01/31 06:24:55;;;;;;;8.70;2.78;;;;;;;18.20;38.01;102228.44;4993558;28;20479;-72
2023/01/31 06:27:20;;;;;;;8.13;2.47;;;;;;;18.24;38.30;102238.72;4991849;28;20034;-71
2023/01/31 06:29:45;;;;;;;6.93;2.40;;;;;;;18.26;38.05;102249.19;5000243;28;20121;-71
2023/01/31 06:32:10;;;;;;;7.88;2.92;;;;;;;18.26;38.32;102242.16;4992945;28;20040;-72
2023/01/31 06:34:36;;;;;;;6.63;2.60;;;;;;;18.25;38.50;102237.81;4992831;28;20038;-71
2023/01/31 06:37:02;;;;;;;6.35;2.72;;;;;;;18.26;38.34;102247.44;4992911;28;20481;-70
2023/01/31 06:39:27;;;;;;;8.68;2.72;;;;;;;18.28;38.59;102234.16;4992826;28;20434;-72
2023/01/31 06:41:52;;;;;;;8.55;2.85;;;;;;;18.27;38.40;102229.78;4992767;28;20034;-68
2023/01/31 06:44:18;;;;;;;10.65;3.55;;;;;;;18.27;38.53;102235.06;4992709;28;20034;-70
2023/01/31 06:46:43;;;;;;;8.35;2.67;;;;;;;18.28;38.56;102234.97;4992463;28;20116;-70
2023/01/31 06:49:08;;;;;;;7.60;2.92;;;;;;;18.25;38.71;102216.69;4992370;28;20060;-71
2023/01/31 06:51:34;;;;;;;8.68;3.40;;;;;;;18.31;38.54;102218.13;4992471;28;20471;-70
2023/01/31 06:53:59;;;;;;;9.40;2.65;;;;;;;18.33;38.81;102210.13;4992368;28;20054;-69
2023/01/31 06:56:24;;;;;;;8.23;2.90;;;;;;;18.34;38.37;102214.44;4991353;28;20027;-69
2023/01/31 06:58:50;;;;;;;7.00;2.47;;;;;;;18.39;39.01;102218.50;4993727;28;20038;-69
2023/01/31 07:01:15;;;;;;;6.55;2.78;;;;;;;18.39;38.89;102212.34;4992549;28;20489;-69
2023/01/31 07:03:41;;;;;;;7.63;2.70;;;;;;;18.43;39.17;102213.88;4991980;28;20065;-70
2023/01/31 07:06:07;;;;;;;7.53;2.55;;;;;;;18.40;39.43;102208.78;4992032;28;20065;-68
2023/01/31 07:08:33;;;;;;;7.88;2.47;;;;;;;18.43;39.36;102209.44;4992100;28;20120;-70
2023/01/31 07:11:00;;;;;;;9.27;2.45;;;;;;;18.45;39.49;102207.56;4991881;28;20125;-69
2023/01/31 07:13:26;;;;;;;8.63;2.63;;;;;;;18.44;39.75;102203.22;4991641;28;20048;-68
2023/01/31 07:15:51;;;;;;;8.90;2.80;;;;;;;18.50;39.79;102209.94;4991959;28;20474;-69
2023/01/31 07:18:16;;;;;;;8.80;2.87;;;;;;;18.52;39.81;102213.31;4990916;28;20038;-69
2023/01/31 07:20:42;;;;;;;8.75;2.55;;;;;;;18.53;39.73;102204.44;4992221;28;20275;-70
2023/01/31 07:23:08;;;;;;;9.00;2.75;;;;;;;18.53;39.66;102196.53;4991381;28;20574;-69
2023/01/31 07:25:34;;;;;;;8.82;2.65;;;;;;;18.56;39.99;102191.06;4991792;28;20056;-69
2023/01/31 07:28:00;;;;;;;8.73;2.50;;;;;;;18.62;40.12;102205.69;4991280;28;20041;-69
2023/01/31 07:30:26;;;;;;;7.97;2.25;;;;;;;18.59;40.23;102198.78;4990912;28;20057;-70
2023/01/31 07:32:51;;;;;;;7.88;3.13;;;;;;;18.64;40.01;102198.50;4992043;28;20109;-71
2023/01/31 07:35:17;;;;;;;7.18;2.40;;;;;;;18.64;40.02;102198.50;4992025;28;20030;-70
2023/01/31 07:37:43;;;;;;;7.95;2.70;;;;;;;18.65;40.12;102192.28;4989007;28;20038;-68
2023/01/31 07:40:14;;;;;;;10.30;2.80;;;;;;;18.63;40.55;102191.53;4990708;28;20037;-68
2023/01/31 07:42:39;;;;;;;8.52;2.65;;;;;;;18.60;41.01;102189.09;4990684;28;20034;-69
2023/01/31 07:45:06;;;;;;;10.45;3.30;;;;;;;18.59;41.32;102190.88;4990604;28;20040;-68
2023/01/31 07:47:31;;;;;;;7.63;2.67;;;;;;;18.57;41.57;102190.13;4989842;28;20125;-68
2023/01/31 07:49:57;;;;;;;8.80;3.10;;;;;;;18.56;41.55;102177.84;4990473;28;20876;-68
2023/01/31 07:52:22;;;;;;;13.57;2.83;;;;;;;18.55;41.88;102178.81;4990508;28;20042;-71
2023/01/31 07:54:47;;;;;;;9.80;2.60;;;;;;;18.55;41.63;102184.09;4991257;28;20944;-68
2023/01/31 07:57:16;;;;;;;11.15;3.20;;;;;;;18.58;41.81;102180.41;4990500;28;20034;-69
2023/01/31 07:59:41;;;;;;;6.25;2.45;;;;;;;18.56;41.84;102169.09;4991228;28;20145;-68
2023/01/31 08:04:55;;;;;;;9.65;2.88;;;;;;;18.49;41.87;102172.09;4990181;28;20108;-67
2023/01/31 08:07:20;;;;;;;10.77;2.70;;;;;;;18.55;42.38;102159.47;4991041;28;20041;-70
2023/01/31 08:09:48;;;;;;;8.90;2.92;;;;;;;18.54;41.90;102157.78;4991355;28;21170;-68
2023/01/31 08:12:13;;;;;;;7.07;2.63;;;;;;;18.49;41.54;102151.00;4991322;28;20114;-67
2023/01/31 08:14:39;;;;;;;9.68;3.10;;;;;;;18.54;41.90;102134.88;4990276;28;20042;-67
2023/01/31 08:17:07;;;;;;;11.25;2.80;;;;;;;18.58;42.28;102140.78;4990702;28;20034;-68
2023/01/31 08:19:33;;;;;;;8.77;2.80;;;;;;;18.57;42.05;102142.59;4991085;28;20088;-67
2023/01/31 08:21:58;;;;;;;9.63;3.10;;;;;;;18.62;41.84;102158.16;4990559;28;20077;-69
2023/01/31 08:24:23;;;;;;;8.95;2.67;;;;;;;18.62;41.70;102143.16;4990639;28;20065;-68
2023/01/31 08:26:49;;;;;;;10.10;2.77;;;;;;;18.62;41.91;102144.94;4996887;28;20391;-68
2023/01/31 08:29:14;;;;;;;9.02;3.08;;;;;;;18.63;41.92;102152.78;4991108;28;20350;-69
2023/01/31 08:31:41;;;;;;;7.05;2.53;;;;;;;18.61;42.08;102145.88;4990944;28;20486;-69
2023/01/31 08:34:06;;;;;;;10.25;3.08;;;;;;;18.63;42.05;102144.03;4990966;28;20114;-69
2023/01/31 08:36:31;;;;;;;9.52;2.47;;;;;;;18.61;42.35;102135.31;4990077;28;20388;-68
2023/01/31 08:38:57;;;;;;;7.70;2.55;;;;;;;18.59;41.86;102126.66;4991259;28;20034;-72
2023/01/31 08:41:24;;;;;;;9.90;2.70;;;;;;;18.66;41.91;102127.97;4991312;28;20061;-73
2023/01/31 08:43:50;;;;;;;11.38;2.70;;;;;;;18.63;42.03;102126.38;4994549;28;20032;-73
2023/01/31 08:46:16;;;;;;;8.25;2.83;;;;;;;18.64;41.71;102117.53;4993871;28;20700;-73
2023/01/31 08:48:42;;;;;;;7.70;2.30;;;;;;;18.65;41.80;102127.13;4994816;28;20117;-73
2023/01/31 08:51:11;;;;;;;9.27;2.58;;;;;;;18.66;41.60;102128.81;4995490;28;20451;-73
2023/01/31 08:53:39;;;;;;;8.15;2.38;;;;;;;18.64;41.62;102120.16;4995308;28;20535;-73
2023/01/31 08:56:06;;;;;;;11.07;2.50;;;;;;;18.66;41.67;102126.19;4994065;28;20074;-74
2023/01/31 08:58:32;;;;;;;6.63;2.35;;;;;;;18.64;41.63;102120.16;4995076;28;20027;-72
2023/01/31 09:01:18;;;;;;;9.93;2.95;;;;;;;18.65;41.61;102105.16;4995606;28;20061;-72
2023/01/31 09:03:45;;;;;;;10.20;2.75;;;;;;;18.60;41.53;102108.09;4996498;28;20506;-72
2023/01/31 09:06:19;;;;;;;7.72;2.53;;;;;;;18.61;41.42;102109.78;4995787;28;20193;-73
2023/01/31 09:08:45;;;;;;;9.32;2.90;;;;;;;18.61;41.60;102103.63;4993769;28;20038;-71
2023/01/31 09:11:16;;;;;;;8.38;2.22;;;;;;;18.57;41.36;102092.44;4996821;28;20034;-72
2023/01/31 09:13:41;;;;;;;6.82;2.40;;;;;;;18.59;41.41;102103.72;4996650;28;20029;-71
2023/01/31 09:16:09;;;;;;;7.28;2.45;;;;;;;18.57;41.35;102099.53;4996712;28;20041;-73
2023/01/31 09:18:37;;;;;;;8.32;2.47;;;;;;;18.58;41.39;102109.13;4995221;28;20137;-73
2023/01/31 09:21:12;;;;;;;6.85;2.42;;;;;;;18.60;41.21;102096.69;4996212;28;20485;-72
2023/01/31 09:23:37;;;;;;;8.77;2.20;;;;;;;18.58;41.39;102093.28;4996233;28;20497;-72
2023/01/31 09:26:03;;;;;;;7.20;2.42;;;;;;;18.58;41.28;102093.28;4994558;28;20033;-73
2023/01/31 09:28:29;;;;;;;5.68;2.00;;;;;;;18.60;41.48;102099.31;4995512;28;20069;-72
2023/01/31 09:30:54;;;;;;;4.95;2.05;;;;;;;18.58;41.42;102080.94;4996163;28;20042;-71
2023/01/31 09:33:21;;;;;;;10.20;2.63;;;;;;;18.60;41.33;102081.69;4993358;28;20030;-72
2023/01/31 09:36:01;;;;;;;7.05;2.40;;;;;;;18.56;41.40;102066.97;4996155;28;20026;-72
2023/01/31 09:38:26;;;;;;;6.65;2.08;;;;;;;18.58;41.49;102073.03;4994814;28;20037;-70
2023/01/31 09:40:53;;;;;;;8.25;2.33;;;;;;;18.60;41.28;102078.19;4994642;28;20030;-74
2023/01/31 09:43:24;;;;;;;9.48;2.33;;;;;;;18.58;41.45;102080.94;4995145;28;20108;-73
2023/01/31 09:45:54;;;;;;;7.57;1.98;;;;;;;18.60;41.46;102083.47;4993796;28;20037;-73
2023/01/31 09:48:25;;;;;;;5.68;2.08;;;;;;;18.62;41.32;102084.22;4993992;28;20494;-73
2023/01/31 09:50:54;;;;;;;8.88;2.40;;;;;;;18.61;41.54;102086.03;4993396;28;20467;-72
2023/01/31 09:53:23;;;;;;;8.70;2.70;;;;;;;18.61;41.63;102072.81;4993418;28;20065;-72
2023/01/31 09:56:23;;;;;;;8.60;2.10;;;;;;;18.64;41.39;102067.34;4993409;28;20049;-72
2023/01/31 09:59:19;;;;;;;8.18;2.22;;;;;;;18.66;41.48;102081.28;4995429;28;20052;-71
2023/01/31 10:01:54;;;;;;;6.55;2.20;;;;;;;18.66;41.53;102070.72;4993698;28;20125;-72
2023/01/31 10:04:38;;;;;;;8.55;2.15;;;;;;;18.64;41.48;102071.75;4993555;28;20030;-71
2023/01/31 10:07:11;;;;;;;7.40;2.27;;;;;;;18.66;41.49;102078.66;5000575;28;20038;-72
2023/01/31 10:10:04;;;;;;;6.97;1.98;;;;;;;18.66;41.70;102089.22;4999470;28;20030;-71
2023/01/31 10:12:39;;;;;;;5.82;2.22;;;;;;;18.65;41.28;102090.16;4993789;28;20145;-72
2023/01/31 10:15:14;;;;;;;7.70;2.10;;;;;;;18.63;41.57;102089.41;4993378;28;20030;-73
2023/01/31 10:17:45;;;;;;;5.40;1.88;;;;;;;18.65;41.29;102084.88;5000636;28;20034;-72
2023/01/31 10:20:16;;;;;;;10.95;2.60;;;;;;;18.65;41.40;102087.50;4993769;28;20050;-71
2023/01/31 10:22:59;;;;;;;8.57;2.13;;;;;;;18.65;41.47;102076.94;4993504;28;20061;-74
2023/01/31 10:25:35;;;;;;;6.90;2.00;;;;;;;18.66;41.71;102049.59;4994963;28;20379;-74
2023/01/31 10:28:12;;;;;;;7.93;2.67;;;;;;;18.65;41.49;102054.97;4992505;28;20530;-73
2023/01/31 10:30:59;;;;;;;7.57;2.17;;;;;;;18.64;41.68;102059.44;4994621;28;20037;-75
2023/01/31 10:33:50;;;;;;;8.25;2.22;;;;;;;18.65;41.62;102063.75;4994395;28;20442;-72
2023/01/31 10:36:39;;;;;;;7.10;2.03;;;;;;;18.66;41.61;102078.66;4990898;28;20466;-74
2023/01/31 10:39:26;;;;;;;9.23;2.20;;;;;;;18.66;41.84;102086.56;4994764;28;20046;-73
2023/01/31 10:42:01;;;;;;;7.88;2.22;;;;;;;18.60;41.86;102086.13;4993759;28;20041;-73
2023/01/31 10:44:44;;;;;;;;;;;;;;;18.72;41.88;102077.41;5001607;28;20466;-75
2023/01/31 10:47:12;;;;;;;8.75;2.28;;;;;;;18.68;41.56;102074.13;4993366;28;19917;-71
2023/01/31 10:49:38;;;;;;;8.63;2.30;;;;;;;18.65;41.62;102058.47;4993583;28;20470;-73
2023/01/31 10:52:12;;;;;;;7.85;2.33;;;;;;;18.63;41.67;102062.16;4993491;28;20057;-74
2023/01/31 10:55:00;;;;;;;6.93;2.38;;;;;;;18.66;41.74;102061.97;4992692;28;20066;-76
2023/01/31 10:57:25;;;;;;;7.63;2.42;;;;;;;18.64;41.73;102040.94;4979063;28;20143;-75
2023/01/31 10:59:52;;;;;;;7.68;2.45;;;;;;;18.60;41.68;102043.88;4992956;28;20565;-74
2023/01/31 11:02:24;;;;;;;7.72;2.45;;;;;;;18.63;42.07;102059.53;4993713;28;20129;-75
2023/01/31 11:04:52;;;;;;;8.13;2.50;;;;;;;18.63;41.93;102039.25;4992327;28;20033;-74
2023/01/31 11:07:18;;;;;;;7.30;2.47;;;;;;;18.60;42.22;102038.59;4995493;28;20038;-74
2023/01/31 11:09:52;;;;;;;8.48;2.42;;;;;;;18.61;41.89;102048.19;4993880;28;20037;-73
2023/01/31 11:12:19;;;;;;;7.22;2.40;;;;;;;18.60;42.06;102039.44;4993887;28;20038;-74
2023/01/31 11:14:44;;;;;;;8.73;2.40;;;;;;;18.63;41.88;102046.31;4992462;28;20038;-73
2023/01/31 11:17:19;;;;;;;9.63;2.55;;;;;;;18.63;42.03;102023.41;4991768;28;20509;-74
2023/01/31 11:19:52;;;;;;;9.77;2.88;;;;;;;18.64;42.12;102026.88;4997967;28;20045;-76
2023/01/31 11:22:26;;;;;;;8.07;2.22;;;;;;;18.66;42.24;102032.94;4992726;28;20172;-73
2023/01/31 11:24:52;;;;;;;9.40;2.72;;;;;;;18.65;42.20;102026.78;4993767;28;20052;-70
2023/01/31 11:27:27;;;;;;;10.68;2.80;;;;;;;18.68;42.32;102008.09;4993277;28;20034;-76
2023/01/31 11:29:56;;;;;;;6.82;2.90;;;;;;;18.64;42.24;101990.78;4993665;28;20029;-74
2023/01/31 11:32:28;;;;;;;7.10;2.88;;;;;;;18.66;42.41;102003.88;4992637;28;20038;-71
2023/01/31 11:35:03;;;;;;;8.38;3.03;;;;;;;18.66;42.36;101995.97;4991915;28;20145;-70
2023/01/31 11:37:29;;;;;;;6.25;2.50;;;;;;;18.69;42.23;102003.66;4992227;28;20057;-71
2023/01/31 11:40:21;;;;;;;6.93;2.40;;;;;;;18.74;42.30;102008.63;4991956;28;20040;-71
2023/01/31 11:42:54;;;;;;;7.38;2.60;;;;;;;18.70;42.28;102009.81;4988842;28;20045;-72
2023/01/31 11:45:23;;;;;;;9.98;3.03;;;;;;;18.72;42.48;102021.09;4991765;28;20034;-71
2023/01/31 11:47:51;;;;;;;8.13;2.50;;;;;;;18.74;42.19;102009.50;4991123;28;20042;-74